createdAt,value
2019-02-08T00:04:02.304Z,96.22
2019-02-08T00:09:08.832Z,97.10
2019-02-08T00:14:13.189Z,97.67
2019-02-08T00:19:17.285Z,97.35
2019-02-08T00:24:21.393Z,97.47
2019-02-08T00:29:25.735Z,97.45
2019-02-08T00:34:29.776Z,98.05
2019-02-08T00:39:33.829Z,97.89
2019-02-08T00:44:37.942Z,98.89
2019-02-08T00:49:41.965Z,98.24
2019-02-08T00:54:46.264Z,99.35
2019-02-08T00:59:51.197Z,99.95
2019-02-08T01:04:55.327Z,100.00
2019-02-08T01:09:59.607Z,99.80
2019-02-08T01:15:04.482Z,99.83
2019-02-08T01:20:11.449Z,100.00
2019-02-08T01:25:17.754Z,100.00
2019-02-08T01:30:26.625Z,100.00
2019-02-08T01:35:30.858Z,100.00
2019-02-08T01:40:36.582Z,100.00
2019-02-08T01:45:40.738Z,100.00
2019-02-08T01:50:45.175Z,100.00
2019-02-08T01:55:51.265Z,100.00
2019-02-08T02:00:55.838Z,99.89
2019-02-08T02:06:00.028Z,100.00
2019-02-08T02:11:04.340Z,100.00
2019-02-08T02:16:08.405Z,100.00
2019-02-08T02:21:12.513Z,100.00
2019-02-08T02:26:16.511Z,100.00
2019-02-08T02:31:20.587Z,100.00
2019-02-08T02:36:24.657Z,100.00
2019-02-08T02:41:28.698Z,100.00
2019-02-08T02:46:32.732Z,100.00
2019-02-08T02:51:36.808Z,100.00
2019-02-08T02:56:41.191Z,100.00
2019-02-08T03:01:45.232Z,100.00
2019-02-08T03:06:49.233Z,100.00
2019-02-08T03:11:53.257Z,100.00
2019-02-08T03:16:57.342Z,100.00
2019-02-08T03:22:01.677Z,100.00
2019-02-08T03:27:06.067Z,100.00
2019-02-08T03:32:10.362Z,100.00
2019-02-08T03:37:14.416Z,99.80
2019-02-08T03:42:18.475Z,100.00
2019-02-08T03:47:22.900Z,99.93
2019-02-08T03:52:26.921Z,100.00
2019-02-08T03:57:30.962Z,100.00
2019-02-08T04:02:35.131Z,100.00
2019-02-08T04:07:39.855Z,100.00
2019-02-08T04:12:43.884Z,100.00
2019-02-08T04:17:48.143Z,100.00
2019-02-08T04:22:52.493Z,100.00
2019-02-08T04:27:56.569Z,100.00
2019-02-08T04:33:01.261Z,100.00
2019-02-08T04:38:05.283Z,100.00
2019-02-08T04:43:10.642Z,100.00
2019-02-08T04:48:14.878Z,100.00
2019-02-08T04:53:18.943Z,100.00
2019-02-08T04:58:23.308Z,100.00
2019-02-08T05:03:27.380Z,100.00
2019-02-08T05:08:31.397Z,100.00
2019-02-08T05:13:35.557Z,100.00
2019-02-08T05:18:39.628Z,100.00
2019-02-08T05:23:43.856Z,100.00
2019-02-08T05:28:48.037Z,100.00
2019-02-08T05:33:52.108Z,100.00
2019-02-08T05:38:56.763Z,100.00
2019-02-08T05:44:00.848Z,100.00
2019-02-08T05:49:05.046Z,100.00
2019-02-08T05:54:09.195Z,100.00
2019-02-08T05:59:13.391Z,100.00
2019-02-08T06:04:17.519Z,100.00
2019-02-08T06:09:21.588Z,100.00
2019-02-08T06:14:25.659Z,100.00
2019-02-08T06:19:29.690Z,100.00
2019-02-08T06:24:33.795Z,100.00
2019-02-08T06:29:37.877Z,100.00
2019-02-08T06:34:41.905Z,100.00
2019-02-08T06:39:46.293Z,100.00
2019-02-08T06:44:50.370Z,100.00
2019-02-08T06:49:54.505Z,100.00
2019-02-08T06:54:58.605Z,100.00
2019-02-08T07:00:02.822Z,100.00
2019-02-08T07:05:07.504Z,100.00
2019-02-08T07:10:11.739Z,100.00
2019-02-08T07:15:15.831Z,100.00
2019-02-08T07:20:19.893Z,100.00
2019-02-08T07:25:24.044Z,100.00
2019-02-08T07:30:36.841Z,100.00
2019-02-08T07:35:40.983Z,99.38
2019-02-08T07:40:50.057Z,99.00
2019-02-08T07:45:57.891Z,97.11
2019-02-08T07:51:01.889Z,96.85
2019-02-08T07:56:06.041Z,93.04
2019-02-08T08:01:10.665Z,93.01
2019-02-08T08:06:14.876Z,91.78
2019-02-08T08:11:18.891Z,89.05
2019-02-08T08:16:22.906Z,88.14
2019-02-08T08:21:27.165Z,88.11
2019-02-08T08:26:31.714Z,88.18
2019-02-08T08:31:38.170Z,88.24
2019-02-08T08:37:36.861Z,86.66
2019-02-08T08:42:55.591Z,85.95
2019-02-08T08:48:36.278Z,83.67
2019-02-08T08:54:07.907Z,83.35
2019-02-08T09:00:08.884Z,82.39
2019-02-08T09:05:47.587Z,81.78
2019-02-08T09:11:14.194Z,80.40
2019-02-08T09:17:03.491Z,80.20
2019-02-08T09:22:50.205Z,78.98
2019-02-08T09:29:05.471Z,77.62
2019-02-08T09:34:46.129Z,77.92
2019-02-08T09:40:29.406Z,76.59
2019-02-08T09:46:12.648Z,75.77
2019-02-08T09:51:52.006Z,74.15
2019-02-08T09:57:11.483Z,74.01
2019-02-08T10:03:05.297Z,73.17
2019-02-08T10:08:43.533Z,72.44
2019-02-08T10:14:23.594Z,71.19
2019-02-08T10:20:06.472Z,67.84
2019-02-08T10:26:05.675Z,67.79
2019-02-08T10:31:42.431Z,66.28
2019-02-08T10:37:22.532Z,67.48
2019-02-08T10:42:57.475Z,65.64
2019-02-08T10:48:34.692Z,66.62
2019-02-08T10:54:03.878Z,65.25
2019-02-08T10:59:58.061Z,65.57
2019-02-08T11:05:43.268Z,64.63
2019-02-08T11:11:37.465Z,65.88
2019-02-08T11:17:18.596Z,62.89
2019-02-08T11:22:22.794Z,61.23
2019-02-08T11:27:26.891Z,58.63
2019-02-08T11:32:42.986Z,60.35
2019-02-08T11:37:37.062Z,62.46
2019-02-08T11:42:43.134Z,61.86
2019-02-08T11:47:47.269Z,63.72
2019-02-08T11:52:51.322Z,63.76
2019-02-08T11:57:55.386Z,62.87
2019-02-08T12:02:59.424Z,64.39
2019-02-08T12:08:03.621Z,64.98
2019-02-08T12:13:07.677Z,64.25
2019-02-08T12:18:11.905Z,65.26
2019-02-08T12:23:15.984Z,64.62
2019-02-08T12:28:19.999Z,65.12
2019-02-08T12:33:24.024Z,65.65
2019-02-08T12:38:28.075Z,66.69
2019-02-08T12:43:32.314Z,66.37
2019-02-08T12:48:37.362Z,65.16
2019-02-08T12:53:41.722Z,65.64
2019-02-08T12:58:45.802Z,65.13
2019-02-08T13:03:49.893Z,65.13
2019-02-08T13:08:54.017Z,64.95
2019-02-08T13:13:58.116Z,65.81
2019-02-08T13:19:02.116Z,65.81
2019-02-08T13:24:06.142Z,66.17
2019-02-08T13:29:10.207Z,62.77
2019-02-08T13:34:14.280Z,64.37
2019-02-08T13:39:18.339Z,65.97
2019-02-08T13:44:22.417Z,66.47
2019-02-08T13:49:26.510Z,66.98
2019-02-08T13:54:30.616Z,65.69
2019-02-08T13:59:34.647Z,63.82
2019-02-08T14:04:39.275Z,63.82
2019-02-08T14:09:46.630Z,64.64
2019-02-08T14:14:52.335Z,65.60
2019-02-08T14:19:58.025Z,65.03
2019-02-08T14:25:02.386Z,65.09
2019-02-08T14:30:17.138Z,63.88
2019-02-08T14:35:22.423Z,64.65
2019-02-08T14:40:28.596Z,64.65
2019-02-08T14:45:38.637Z,66.22
2019-02-08T14:50:44.622Z,66.97
2019-02-08T14:55:51.361Z,67.37
2019-02-08T15:00:57.946Z,66.80
2019-02-08T15:06:02.316Z,67.19
2019-02-08T15:11:06.520Z,68.15
2019-02-08T15:16:10.679Z,68.96
2019-02-08T15:21:14.988Z,69.89
2019-02-08T15:26:19.416Z,70.39
2019-02-08T15:31:23.605Z,70.38
2019-02-08T15:36:27.688Z,70.67
2019-02-08T15:41:32.020Z,70.20
2019-02-08T15:46:36.093Z,70.78
2019-02-08T15:51:40.140Z,71.69
2019-02-08T15:56:44.227Z,72.45
2019-02-08T16:01:49.963Z,72.27
2019-02-08T16:06:54.052Z,72.90
2019-02-08T16:11:58.117Z,71.85
2019-02-08T16:17:02.272Z,72.26
2019-02-08T16:22:06.287Z,72.25
2019-02-08T16:27:10.289Z,71.50
2019-02-08T16:32:14.411Z,72.31
2019-02-08T16:37:18.478Z,73.09
2019-02-08T16:42:22.564Z,72.22
2019-02-08T16:47:26.599Z,73.05
2019-02-08T16:52:30.828Z,72.53
2019-02-08T16:57:34.889Z,72.29
2019-02-08T17:02:38.896Z,71.87
2019-02-08T17:07:42.905Z,71.84
2019-02-08T17:12:47.190Z,71.43
2019-02-08T17:17:51.434Z,72.16
2019-02-08T17:22:55.585Z,72.03
2019-02-08T17:27:59.998Z,72.23
2019-02-08T17:33:04.786Z,73.41
2019-02-08T17:38:08.985Z,73.25
2019-02-08T17:43:13.041Z,73.68
2019-02-08T17:48:17.093Z,74.10
2019-02-08T17:53:21.152Z,74.48
2019-02-08T17:58:25.186Z,74.20
2019-02-08T18:03:31.300Z,74.93
2019-02-08T18:08:35.449Z,75.40
2019-02-08T18:13:39.467Z,74.81
2019-02-08T18:18:43.472Z,74.71
2019-02-08T18:23:47.520Z,74.61
2019-02-08T18:28:52.031Z,73.76
2019-02-08T18:33:59.859Z,75.06
2019-02-08T18:39:07.392Z,75.52
2019-02-08T18:44:12.217Z,75.53
2019-02-08T18:49:16.213Z,75.93
2019-02-08T18:54:20.340Z,76.91
2019-02-08T18:59:25.758Z,77.39
2019-02-08T19:04:31.349Z,76.98
2019-02-08T19:09:37.840Z,77.43
2019-02-08T19:14:42.547Z,77.15
2019-02-08T19:19:48.040Z,77.28
2019-02-08T19:24:58.359Z,77.24
2019-02-08T19:30:05.371Z,76.78
2019-02-08T19:35:10.191Z,77.98
2019-02-08T19:40:17.711Z,77.91
2019-02-08T19:45:22.727Z,77.54
2019-02-08T19:50:32.934Z,76.91
2019-02-08T19:55:38.850Z,77.71
2019-02-08T20:00:43.296Z,77.17
2019-02-08T20:05:47.349Z,77.33
2019-02-08T20:10:52.441Z,77.37
2019-02-08T20:15:56.900Z,77.03
2019-02-08T20:21:01.435Z,77.25
2019-02-08T20:26:06.745Z,77.00
2019-02-08T20:31:10.858Z,76.86
2019-02-08T20:36:14.934Z,77.36
2019-02-08T20:41:19.191Z,76.45
2019-02-08T20:46:23.269Z,76.67
2019-02-08T20:51:27.412Z,77.14
2019-02-08T20:56:31.698Z,77.55
2019-02-08T21:01:36.040Z,77.80
2019-02-08T21:06:40.143Z,78.64
2019-02-08T21:11:44.218Z,79.53
2019-02-08T21:16:48.284Z,79.54
2019-02-08T21:21:52.400Z,79.91
2019-02-08T21:26:56.669Z,80.60
2019-02-08T21:32:00.726Z,80.55
2019-02-08T21:37:04.983Z,80.16
2019-02-08T21:42:09.036Z,80.52
2019-02-08T21:47:13.145Z,79.83
2019-02-08T21:52:17.285Z,80.44
2019-02-08T21:57:21.329Z,80.98
2019-02-08T22:02:25.371Z,80.67
2019-02-08T22:07:29.610Z,80.26
2019-02-08T22:12:33.842Z,80.96
2019-02-08T22:17:38.030Z,81.00
2019-02-08T22:22:42.418Z,81.49
2019-02-08T22:27:46.516Z,82.24
2019-02-08T22:32:51.904Z,83.01
2019-02-08T22:37:55.934Z,81.74
2019-02-08T22:42:59.987Z,81.55
2019-02-08T22:48:04.755Z,81.01
2019-02-08T22:53:09.370Z,81.64
2019-02-08T22:58:13.545Z,81.53
2019-02-08T23:03:17.970Z,81.67
2019-02-08T23:08:22.040Z,80.94
2019-02-08T23:13:26.390Z,80.71
2019-02-08T23:18:30.506Z,80.31
2019-02-08T23:23:34.575Z,79.36
2019-02-08T23:28:38.603Z,78.85
2019-02-08T23:33:42.654Z,78.84
2019-02-08T23:38:46.696Z,78.57
2019-02-08T23:43:50.806Z,79.16
2019-02-08T23:48:54.843Z,79.93
2019-02-08T23:53:58.897Z,79.35
2019-02-08T23:59:03.052Z,78.99
